sensor_id;sensor_type;location;lat;lon;timestamp;P1;durP1;ratioP1;P2;durP2;ratioP2
5199;SDS011;2619;47.868;11.892;2023-02-22T00:01:19;6.77;;;4.00;;
5199;SDS011;2619;47.868;11.892;2023-02-22T00:04:05;6.67;;;3.60;;
5199;SDS011;2619;47.868;11.892;2023-02-22T00:06:31;5.60;;;3.50;;
5199;SDS011;2619;47.868;11.892;2023-02-22T00:08:57;5.50;;;3.10;;
5199;SDS011;2619;47.868;11.892;2023-02-22T00:11:23;5.53;;;2.73;;
5199;SDS011;2619;47.868;11.892;2023-02-22T00:13:49;7.07;;;2.70;;
5199;SDS011;2619;47.868;11.892;2023-02-22T00:16:16;5.50;;;3.17;;
5199;SDS011;2619;47.868;11.892;2023-02-22T00:18:43;4.83;;;3.37;;
5199;SDS011;2619;47.868;11.892;2023-02-22T00:21:09;5.87;;;3.10;;
5199;SDS011;2619;47.868;11.892;2023-02-22T00:23:38;4.33;;;2.90;;
5199;SDS011;2619;47.868;11.892;2023-02-22T00:26:07;4.20;;;3.00;;
5199;SDS011;2619;47.868;11.892;2023-02-22T00:28:34;4.43;;;2.70;;
5199;SDS011;2619;47.868;11.892;2023-02-22T00:31:01;6.30;;;3.10;;
5199;SDS011;2619;47.868;11.892;2023-02-22T00:33:29;5.13;;;2.50;;
5199;SDS011;2619;47.868;11.892;2023-02-22T00:35:55;3.50;;;2.53;;
5199;SDS011;2619;47.868;11.892;2023-02-22T00:38:21;4.63;;;3.07;;
5199;SDS011;2619;47.868;11.892;2023-02-22T00:40:46;6.10;;;2.80;;
5199;SDS011;2619;47.868;11.892;2023-02-22T00:43:12;6.23;;;2.70;;
5199;SDS011;2619;47.868;11.892;2023-02-22T00:45:38;3.70;;;2.17;;
5199;SDS011;2619;47.868;11.892;2023-02-22T00:48:05;5.40;;;2.50;;
5199;SDS011;2619;47.868;11.892;2023-02-22T00:50:31;3.47;;;2.00;;
5199;SDS011;2619;47.868;11.892;2023-02-22T00:52:58;5.97;;;2.20;;
5199;SDS011;2619;47.868;11.892;2023-02-22T00:55:34;6.23;;;2.90;;
5199;SDS011;2619;47.868;11.892;2023-02-22T00:58:01;3.67;;;2.37;;
5199;SDS011;2619;47.868;11.892;2023-02-22T01:00:29;6.43;;;2.60;;
5199;SDS011;2619;47.868;11.892;2023-02-22T01:02:57;5.47;;;2.70;;
5199;SDS011;2619;47.868;11.892;2023-02-22T01:05:25;5.27;;;2.20;;
5199;SDS011;2619;47.868;11.892;2023-02-22T01:07:54;3.80;;;2.23;;
5199;SDS011;2619;47.868;11.892;2023-02-22T01:10:22;3.80;;;2.20;;
5199;SDS011;2619;47.868;11.892;2023-02-22T01:12:49;4.53;;;2.70;;
5199;SDS011;2619;47.868;11.892;2023-02-22T01:15:17;7.67;;;3.20;;
5199;SDS011;2619;47.868;11.892;2023-02-22T01:17:47;6.53;;;3.07;;
5199;SDS011;2619;47.868;11.892;2023-02-22T01:20:14;3.93;;;2.60;;
5199;SDS011;2619;47.868;11.892;2023-02-22T01:22:41;3.60;;;2.00;;
5199;SDS011;2619;47.868;11.892;2023-02-22T01:25:10;3.70;;;2.50;;
5199;SDS011;2619;47.868;11.892;2023-02-22T01:27:37;4.47;;;2.80;;
5199;SDS011;2619;47.868;11.892;2023-02-22T01:30:03;4.30;;;2.90;;
5199;SDS011;2619;47.868;11.892;2023-02-22T01:32:33;4.97;;;2.70;;
5199;SDS011;2619;47.868;11.892;2023-02-22T01:35:02;4.20;;;2.37;;
5199;SDS011;2619;47.868;11.892;2023-02-22T01:37:30;4.40;;;2.67;;
5199;SDS011;2619;47.868;11.892;2023-02-22T01:39:56;4.03;;;2.70;;
5199;SDS011;2619;47.868;11.892;2023-02-22T01:42:22;3.43;;;2.07;;
5199;SDS011;2619;47.868;11.892;2023-02-22T01:47:51;6.00;;;3.13;;
5199;SDS011;2619;47.868;11.892;2023-02-22T01:50:18;4.90;;;3.60;;
5199;SDS011;2619;47.868;11.892;2023-02-22T01:52:43;11.63;;;2.47;;
5199;SDS011;2619;47.868;11.892;2023-02-22T01:55:09;3.70;;;2.43;;
5199;SDS011;2619;47.868;11.892;2023-02-22T01:57:35;4.37;;;2.33;;
5199;SDS011;2619;47.868;11.892;2023-02-22T02:00:07;4.13;;;2.40;;
5199;SDS011;2619;47.868;11.892;2023-02-22T02:02:39;4.37;;;2.30;;
5199;SDS011;2619;47.868;11.892;2023-02-22T02:05:10;3.63;;;2.27;;
5199;SDS011;2619;47.868;11.892;2023-02-22T02:07:36;3.50;;;2.40;;
5199;SDS011;2619;47.868;11.892;2023-02-22T02:10:05;3.90;;;2.33;;
5199;SDS011;2619;47.868;11.892;2023-02-22T02:12:38;3.07;;;2.00;;
5199;SDS011;2619;47.868;11.892;2023-02-22T02:15:27;3.63;;;2.10;;
5199;SDS011;2619;47.868;11.892;2023-02-22T02:17:57;4.30;;;2.47;;
5199;SDS011;2619;47.868;11.892;2023-02-22T02:20:38;3.50;;;2.27;;
5199;SDS011;2619;47.868;11.892;2023-02-22T02:34:30;4.20;;;2.13;;
5199;SDS011;2619;47.868;11.892;2023-02-22T02:37:08;4.00;;;2.60;;
5199;SDS011;2619;47.868;11.892;2023-02-22T02:39:42;4.57;;;2.50;;
5199;SDS011;2619;47.868;11.892;2023-02-22T02:42:18;5.10;;;2.37;;
5199;SDS011;2619;47.868;11.892;2023-02-22T02:47:29;4.60;;;2.63;;
5199;SDS011;2619;47.868;11.892;2023-02-22T02:52:27;4.50;;;2.60;;
5199;SDS011;2619;47.868;11.892;2023-02-22T02:54:55;7.37;;;2.60;;
5199;SDS011;2619;47.868;11.892;2023-02-22T02:57:22;4.13;;;2.00;;
5199;SDS011;2619;47.868;11.892;2023-02-22T02:59:48;3.73;;;2.23;;
5199;SDS011;2619;47.868;11.892;2023-02-22T03:05:10;4.37;;;2.70;;
5199;SDS011;2619;47.868;11.892;2023-02-22T03:10:31;5.37;;;2.80;;
5199;SDS011;2619;47.868;11.892;2023-02-22T03:13:08;10.43;;;2.60;;
5199;SDS011;2619;47.868;11.892;2023-02-22T03:15:53;4.97;;;1.97;;
5199;SDS011;2619;47.868;11.892;2023-02-22T03:21:08;4.50;;;2.77;;
5199;SDS011;2619;47.868;11.892;2023-02-22T03:26:45;12.50;;;2.30;;
5199;SDS011;2619;47.868;11.892;2023-02-22T03:29:13;6.03;;;3.00;;
5199;SDS011;2619;47.868;11.892;2023-02-22T03:31:43;4.40;;;2.27;;
5199;SDS011;2619;47.868;11.892;2023-02-22T03:34:15;4.83;;;2.70;;
5199;SDS011;2619;47.868;11.892;2023-02-22T03:36:49;5.67;;;2.63;;
5199;SDS011;2619;47.868;11.892;2023-02-22T03:39:23;4.63;;;2.60;;
5199;SDS011;2619;47.868;11.892;2023-02-22T03:41:55;3.07;;;2.10;;
5199;SDS011;2619;47.868;11.892;2023-02-22T03:44:26;4.57;;;2.20;;
5199;SDS011;2619;47.868;11.892;2023-02-22T03:46:54;4.60;;;2.00;;
5199;SDS011;2619;47.868;11.892;2023-02-22T03:52:13;5.17;;;2.10;;
5199;SDS011;2619;47.868;11.892;2023-02-22T03:54:39;3.90;;;2.23;;
5199;SDS011;2619;47.868;11.892;2023-02-22T03:57:09;3.83;;;2.13;;
5199;SDS011;2619;47.868;11.892;2023-02-22T03:59:39;5.80;;;2.13;;
5199;SDS011;2619;47.868;11.892;2023-02-22T04:02:05;3.73;;;1.90;;
5199;SDS011;2619;47.868;11.892;2023-02-22T04:04:31;3.27;;;2.27;;
5199;SDS011;2619;47.868;11.892;2023-02-22T04:06:56;5.00;;;2.60;;
5199;SDS011;2619;47.868;11.892;2023-02-22T04:09:22;3.37;;;2.37;;
5199;SDS011;2619;47.868;11.892;2023-02-22T04:11:48;3.80;;;2.70;;
5199;SDS011;2619;47.868;11.892;2023-02-22T04:14:13;9.00;;;3.10;;
5199;SDS011;2619;47.868;11.892;2023-02-22T04:16:39;4.33;;;2.40;;
5199;SDS011;2619;47.868;11.892;2023-02-22T04:19:05;5.00;;;2.43;;
5199;SDS011;2619;47.868;11.892;2023-02-22T04:21:30;5.13;;;2.30;;
5199;SDS011;2619;47.868;11.892;2023-02-22T04:23:56;3.30;;;2.07;;
5199;SDS011;2619;47.868;11.892;2023-02-22T04:26:22;8.40;;;2.90;;
5199;SDS011;2619;47.868;11.892;2023-02-22T04:28:48;7.60;;;2.17;;
5199;SDS011;2619;47.868;11.892;2023-02-22T04:31:14;3.90;;;1.73;;
5199;SDS011;2619;47.868;11.892;2023-02-22T04:33:40;3.60;;;2.07;;
5199;SDS011;2619;47.868;11.892;2023-02-22T04:36:07;5.03;;;2.30;;
5199;SDS011;2619;47.868;11.892;2023-02-22T04:38:33;3.57;;;1.97;;
5199;SDS011;2619;47.868;11.892;2023-02-22T04:40:59;4.10;;;1.80;;
5199;SDS011;2619;47.868;11.892;2023-02-22T04:43:24;3.93;;;2.10;;
5199;SDS011;2619;47.868;11.892;2023-02-22T04:45:50;5.10;;;2.33;;
5199;SDS011;2619;47.868;11.892;2023-02-22T04:48:16;3.93;;;2.37;;
5199;SDS011;2619;47.868;11.892;2023-02-22T04:50:41;4.40;;;2.30;;
5199;SDS011;2619;47.868;11.892;2023-02-22T04:53:07;5.47;;;2.57;;
5199;SDS011;2619;47.868;11.892;2023-02-22T04:55:33;4.33;;;3.10;;
5199;SDS011;2619;47.868;11.892;2023-02-22T04:57:58;3.40;;;2.10;;
5199;SDS011;2619;47.868;11.892;2023-02-22T05:00:24;3.63;;;2.37;;
5199;SDS011;2619;47.868;11.892;2023-02-22T05:02:50;4.20;;;2.97;;
5199;SDS011;2619;47.868;11.892;2023-02-22T05:05:16;5.43;;;3.23;;
5199;SDS011;2619;47.868;11.892;2023-02-22T05:07:45;5.13;;;3.00;;
5199;SDS011;2619;47.868;11.892;2023-02-22T05:10:11;7.87;;;4.10;;
5199;SDS011;2619;47.868;11.892;2023-02-22T05:12:37;4.30;;;2.97;;
5199;SDS011;2619;47.868;11.892;2023-02-22T05:15:04;6.47;;;3.30;;
5199;SDS011;2619;47.868;11.892;2023-02-22T05:17:31;4.60;;;3.20;;
5199;SDS011;2619;47.868;11.892;2023-02-22T05:19:57;6.00;;;3.37;;
5199;SDS011;2619;47.868;11.892;2023-02-22T05:22:23;7.90;;;3.70;;
5199;SDS011;2619;47.868;11.892;2023-02-22T05:24:49;9.07;;;4.10;;
5199;SDS011;2619;47.868;11.892;2023-02-22T05:27:16;4.13;;;2.67;;
5199;SDS011;2619;47.868;11.892;2023-02-22T05:29:42;5.17;;;3.27;;
5199;SDS011;2619;47.868;11.892;2023-02-22T05:32:08;7.10;;;3.07;;
5199;SDS011;2619;47.868;11.892;2023-02-22T05:34:36;4.43;;;2.97;;
5199;SDS011;2619;47.868;11.892;2023-02-22T05:37:01;4.73;;;2.73;;
5199;SDS011;2619;47.868;11.892;2023-02-22T05:39:27;4.00;;;2.60;;
5199;SDS011;2619;47.868;11.892;2023-02-22T05:41:54;5.00;;;2.60;;
5199;SDS011;2619;47.868;11.892;2023-02-22T05:44:19;4.63;;;3.07;;
5199;SDS011;2619;47.868;11.892;2023-02-22T05:46:45;5.73;;;3.67;;
5199;SDS011;2619;47.868;11.892;2023-02-22T05:49:10;4.23;;;2.80;;
5199;SDS011;2619;47.868;11.892;2023-02-22T05:51:36;4.50;;;3.03;;
5199;SDS011;2619;47.868;11.892;2023-02-22T05:54:02;5.10;;;3.27;;
5199;SDS011;2619;47.868;11.892;2023-02-22T05:56:28;8.07;;;5.27;;
5199;SDS011;2619;47.868;11.892;2023-02-22T05:58:54;7.00;;;4.20;;
5199;SDS011;2619;47.868;11.892;2023-02-22T06:01:21;7.90;;;4.57;;
5199;SDS011;2619;47.868;11.892;2023-02-22T06:03:47;6.80;;;4.30;;
5199;SDS011;2619;47.868;11.892;2023-02-22T06:06:14;5.27;;;3.53;;
5199;SDS011;2619;47.868;11.892;2023-02-22T06:08:41;7.10;;;4.87;;
5199;SDS011;2619;47.868;11.892;2023-02-22T06:11:06;6.90;;;4.47;;
5199;SDS011;2619;47.868;11.892;2023-02-22T06:13:33;8.63;;;4.90;;
5199;SDS011;2619;47.868;11.892;2023-02-22T06:15:59;5.90;;;3.67;;
5199;SDS011;2619;47.868;11.892;2023-02-22T06:18:25;4.10;;;3.07;;
5199;SDS011;2619;47.868;11.892;2023-02-22T06:20:54;4.37;;;2.90;;
5199;SDS011;2619;47.868;11.892;2023-02-22T06:23:19;6.07;;;3.47;;
5199;SDS011;2619;47.868;11.892;2023-02-22T06:25:45;4.83;;;2.97;;
5199;SDS011;2619;47.868;11.892;2023-02-22T06:28:11;6.77;;;3.60;;
5199;SDS011;2619;47.868;11.892;2023-02-22T06:30:36;5.80;;;2.90;;
5199;SDS011;2619;47.868;11.892;2023-02-22T06:33:02;5.40;;;3.20;;
5199;SDS011;2619;47.868;11.892;2023-02-22T06:35:28;5.10;;;2.23;;
5199;SDS011;2619;47.868;11.892;2023-02-22T06:37:53;5.40;;;2.57;;
5199;SDS011;2619;47.868;11.892;2023-02-22T06:40:19;6.70;;;2.67;;
5199;SDS011;2619;47.868;11.892;2023-02-22T06:42:46;4.67;;;2.40;;
5199;SDS011;2619;47.868;11.892;2023-02-22T06:45:13;2.93;;;2.00;;
5199;SDS011;2619;47.868;11.892;2023-02-22T06:47:41;3.20;;;2.03;;
5199;SDS011;2619;47.868;11.892;2023-02-22T06:50:09;3.50;;;1.97;;
5199;SDS011;2619;47.868;11.892;2023-02-22T06:52:52;6.50;;;2.63;;
5199;SDS011;2619;47.868;11.892;2023-02-22T06:55:20;4.40;;;2.90;;
5199;SDS011;2619;47.868;11.892;2023-02-22T06:57:47;4.70;;;2.17;;
5199;SDS011;2619;47.868;11.892;2023-02-22T07:00:14;3.83;;;2.90;;
5199;SDS011;2619;47.868;11.892;2023-02-22T07:02:41;6.40;;;2.87;;
5199;SDS011;2619;47.868;11.892;2023-02-22T07:05:08;7.03;;;2.40;;
5199;SDS011;2619;47.868;11.892;2023-02-22T07:07:36;4.40;;;3.30;;
5199;SDS011;2619;47.868;11.892;2023-02-22T07:10:03;12.17;;;8.50;;
5199;SDS011;2619;47.868;11.892;2023-02-22T07:12:30;17.30;;;10.30;;
5199;SDS011;2619;47.868;11.892;2023-02-22T07:14:55;7.30;;;5.97;;
5199;SDS011;2619;47.868;11.892;2023-02-22T07:17:21;8.50;;;5.70;;
5199;SDS011;2619;47.868;11.892;2023-02-22T07:19:46;7.43;;;5.40;;
5199;SDS011;2619;47.868;11.892;2023-02-22T07:22:12;9.30;;;6.00;;
5199;SDS011;2619;47.868;11.892;2023-02-22T07:24:37;9.87;;;6.03;;
5199;SDS011;2619;47.868;11.892;2023-02-22T07:27:05;8.30;;;5.43;;
5199;SDS011;2619;47.868;11.892;2023-02-22T07:29:30;7.47;;;5.20;;
5199;SDS011;2619;47.868;11.892;2023-02-22T07:31:57;6.80;;;4.57;;
5199;SDS011;2619;47.868;11.892;2023-02-22T07:34:23;6.00;;;4.50;;
5199;SDS011;2619;47.868;11.892;2023-02-22T07:36:48;6.00;;;4.00;;
5199;SDS011;2619;47.868;11.892;2023-02-22T07:39:14;7.37;;;4.90;;
5199;SDS011;2619;47.868;11.892;2023-02-22T07:41:40;8.10;;;5.23;;
5199;SDS011;2619;47.868;11.892;2023-02-22T07:44:05;5.43;;;4.20;;
5199;SDS011;2619;47.868;11.892;2023-02-22T07:46:31;6.70;;;4.03;;
5199;SDS011;2619;47.868;11.892;2023-02-22T07:48:57;5.27;;;3.20;;
5199;SDS011;2619;47.868;11.892;2023-02-22T07:51:23;4.97;;;3.40;;
5199;SDS011;2619;47.868;11.892;2023-02-22T07:53:49;7.33;;;3.10;;
5199;SDS011;2619;47.868;11.892;2023-02-22T07:56:14;4.00;;;2.73;;
5199;SDS011;2619;47.868;11.892;2023-02-22T07:58:42;4.80;;;2.97;;
5199;SDS011;2619;47.868;11.892;2023-02-22T08:01:07;4.40;;;2.80;;
5199;SDS011;2619;47.868;11.892;2023-02-22T08:03:34;5.63;;;3.20;;
5199;SDS011;2619;47.868;11.892;2023-02-22T08:06:00;5.50;;;4.30;;
5199;SDS011;2619;47.868;11.892;2023-02-22T08:08:27;6.70;;;4.10;;
5199;SDS011;2619;47.868;11.892;2023-02-22T08:10:52;5.37;;;3.43;;
5199;SDS011;2619;47.868;11.892;2023-02-22T08:13:19;4.50;;;2.80;;
5199;SDS011;2619;47.868;11.892;2023-02-22T08:15:46;6.50;;;2.50;;
5199;SDS011;2619;47.868;11.892;2023-02-22T08:18:13;5.83;;;3.00;;
5199;SDS011;2619;47.868;11.892;2023-02-22T08:20:41;5.13;;;2.57;;
5199;SDS011;2619;47.868;11.892;2023-02-22T08:23:08;4.40;;;2.30;;
5199;SDS011;2619;47.868;11.892;2023-02-22T08:25:35;9.60;;;4.90;;
5199;SDS011;2619;47.868;11.892;2023-02-22T08:28:02;4.07;;;2.30;;
5199;SDS011;2619;47.868;11.892;2023-02-22T08:30:34;4.10;;;2.23;;
5199;SDS011;2619;47.868;11.892;2023-02-22T08:33:01;6.17;;;3.10;;
5199;SDS011;2619;47.868;11.892;2023-02-22T08:35:28;2.77;;;1.90;;
5199;SDS011;2619;47.868;11.892;2023-02-22T08:37:57;5.97;;;2.20;;
5199;SDS011;2619;47.868;11.892;2023-02-22T08:40:28;5.17;;;2.37;;
5199;SDS011;2619;47.868;11.892;2023-02-22T08:42:55;3.43;;;2.50;;
5199;SDS011;2619;47.868;11.892;2023-02-22T08:45:21;4.10;;;2.37;;
5199;SDS011;2619;47.868;11.892;2023-02-22T08:47:47;6.40;;;2.43;;
5199;SDS011;2619;47.868;11.892;2023-02-22T08:50:15;3.53;;;2.03;;
5199;SDS011;2619;47.868;11.892;2023-02-22T08:52:43;5.13;;;2.30;;
5199;SDS011;2619;47.868;11.892;2023-02-22T08:55:09;4.30;;;2.50;;
5199;SDS011;2619;47.868;11.892;2023-02-22T08:57:35;3.90;;;2.20;;
5199;SDS011;2619;47.868;11.892;2023-02-22T09:00:01;2.97;;;1.80;;
5199;SDS011;2619;47.868;11.892;2023-02-22T09:02:29;3.53;;;2.10;;
5199;SDS011;2619;47.868;11.892;2023-02-22T09:04:54;3.93;;;2.40;;
5199;SDS011;2619;47.868;11.892;2023-02-22T09:07:20;3.37;;;2.20;;
5199;SDS011;2619;47.868;11.892;2023-02-22T09:09:45;4.83;;;2.27;;
5199;SDS011;2619;47.868;11.892;2023-02-22T09:12:11;4.87;;;2.17;;
5199;SDS011;2619;47.868;11.892;2023-02-22T09:14:37;4.03;;;2.13;;
5199;SDS011;2619;47.868;11.892;2023-02-22T09:17:02;3.60;;;2.13;;
5199;SDS011;2619;47.868;11.892;2023-02-22T09:19:28;5.37;;;2.93;;
5199;SDS011;2619;47.868;11.892;2023-02-22T09:21:54;3.67;;;2.20;;
5199;SDS011;2619;47.868;11.892;2023-02-22T09:24:22;3.60;;;2.57;;
5199;SDS011;2619;47.868;11.892;2023-02-22T09:26:47;5.20;;;2.80;;
5199;SDS011;2619;47.868;11.892;2023-02-22T09:29:18;3.53;;;2.40;;
5199;SDS011;2619;47.868;11.892;2023-02-22T09:31:48;4.67;;;3.00;;
5199;SDS011;2619;47.868;11.892;2023-02-22T09:34:16;3.83;;;2.80;;
5199;SDS011;2619;47.868;11.892;2023-02-22T09:36:44;5.57;;;3.13;;
5199;SDS011;2619;47.868;11.892;2023-02-22T09:39:11;6.30;;;3.40;;
5199;SDS011;2619;47.868;11.892;2023-02-22T09:47:18;6.83;;;4.10;;
5199;SDS011;2619;47.868;11.892;2023-02-22T09:49:57;5.73;;;3.93;;
5199;SDS011;2619;47.868;11.892;2023-02-22T09:52:35;5.13;;;3.80;;
5199;SDS011;2619;47.868;11.892;2023-02-22T09:55:16;5.00;;;3.33;;
5199;SDS011;2619;47.868;11.892;2023-02-22T09:57:44;6.27;;;3.40;;
5199;SDS011;2619;47.868;11.892;2023-02-22T10:00:16;5.10;;;3.40;;
5199;SDS011;2619;47.868;11.892;2023-02-22T10:05:18;5.10;;;3.53;;
5199;SDS011;2619;47.868;11.892;2023-02-22T10:07:58;7.33;;;4.10;;
5199;SDS011;2619;47.868;11.892;2023-02-22T10:10:31;5.90;;;3.60;;
5199;SDS011;2619;47.868;11.892;2023-02-22T10:18:55;6.60;;;3.00;;
5199;SDS011;2619;47.868;11.892;2023-02-22T10:24:52;3.47;;;2.40;;
5199;SDS011;2619;47.868;11.892;2023-02-22T10:27:32;4.60;;;2.90;;
5199;SDS011;2619;47.868;11.892;2023-02-22T10:32:45;3.37;;;2.10;;
5199;SDS011;2619;47.868;11.892;2023-02-22T10:35:22;4.00;;;2.30;;
5199;SDS011;2619;47.868;11.892;2023-02-22T10:37:55;4.37;;;2.30;;
5199;SDS011;2619;47.868;11.892;2023-02-22T10:40:30;5.40;;;2.67;;
5199;SDS011;2619;47.868;11.892;2023-02-22T10:42:57;4.43;;;2.87;;
5199;SDS011;2619;47.868;11.892;2023-02-22T10:45:41;5.40;;;2.77;;
5199;SDS011;2619;47.868;11.892;2023-02-22T10:48:07;3.90;;;3.00;;
5199;SDS011;2619;47.868;11.892;2023-02-22T10:50:39;3.60;;;2.50;;
5199;SDS011;2619;47.868;11.892;2023-02-22T10:53:08;3.57;;;2.53;;
5199;SDS011;2619;47.868;11.892;2023-02-22T10:55:34;4.90;;;2.80;;
5199;SDS011;2619;47.868;11.892;2023-02-22T10:58:05;5.93;;;2.73;;
5199;SDS011;2619;47.868;11.892;2023-02-22T11:00:41;3.83;;;3.13;;
5199;SDS011;2619;47.868;11.892;2023-02-22T11:03:20;4.93;;;3.03;;
5199;SDS011;2619;47.868;11.892;2023-02-22T11:05:47;3.47;;;2.67;;
5199;SDS011;2619;47.868;11.892;2023-02-22T11:10:46;7.83;;;2.70;;
5199;SDS011;2619;47.868;11.892;2023-02-22T11:13:23;3.50;;;3.00;;
5199;SDS011;2619;47.868;11.892;2023-02-22T11:16:16;6.40;;;3.17;;
5199;SDS011;2619;47.868;11.892;2023-02-22T11:18:46;4.00;;;2.67;;
5199;SDS011;2619;47.868;11.892;2023-02-22T11:21:12;4.73;;;2.47;;
5199;SDS011;2619;47.868;11.892;2023-02-22T11:23:46;4.30;;;2.13;;
5199;SDS011;2619;47.868;11.892;2023-02-22T11:26:18;4.47;;;2.17;;
5199;SDS011;2619;47.868;11.892;2023-02-22T11:28:45;3.27;;;1.90;;
5199;SDS011;2619;47.868;11.892;2023-02-22T11:31:17;3.93;;;1.90;;
5199;SDS011;2619;47.868;11.892;2023-02-22T11:33:53;3.53;;;2.40;;
5199;SDS011;2619;47.868;11.892;2023-02-22T11:36:47;2.40;;;1.60;;
5199;SDS011;2619;47.868;11.892;2023-02-22T11:41:56;4.90;;;2.90;;
5199;SDS011;2619;47.868;11.892;2023-02-22T11:46:57;4.47;;;2.00;;
5199;SDS011;2619;47.868;11.892;2023-02-22T11:49:31;3.17;;;2.13;;
5199;SDS011;2619;47.868;11.892;2023-02-22T11:52:09;3.90;;;2.40;;
5199;SDS011;2619;47.868;11.892;2023-02-22T12:02:52;2.60;;;1.80;;
5199;SDS011;2619;47.868;11.892;2023-02-22T12:06:18;3.30;;;2.17;;
5199;SDS011;2619;47.868;11.892;2023-02-22T12:08:35;4.63;;;2.20;;
5199;SDS011;2619;47.868;11.892;2023-02-22T12:19:44;3.73;;;2.27;;
5199;SDS011;2619;47.868;11.892;2023-02-22T12:22:22;3.23;;;2.10;;
5199;SDS011;2619;47.868;11.892;2023-02-22T12:24:54;5.97;;;2.20;;
5199;SDS011;2619;47.868;11.892;2023-02-22T12:27:26;3.60;;;2.20;;
5199;SDS011;2619;47.868;11.892;2023-02-22T12:30:26;3.07;;;2.00;;
5199;SDS011;2619;47.868;11.892;2023-02-22T12:32:59;7.33;;;2.30;;
5199;SDS011;2619;47.868;11.892;2023-02-22T12:35:30;2.97;;;2.10;;
5199;SDS011;2619;47.868;11.892;2023-02-22T12:38:13;4.20;;;2.03;;
5199;SDS011;2619;47.868;11.892;2023-02-22T12:46:34;3.37;;;2.40;;
5199;SDS011;2619;47.868;11.892;2023-02-22T12:54:40;3.30;;;1.87;;
5199;SDS011;2619;47.868;11.892;2023-02-22T12:59:56;3.40;;;2.30;;
5199;SDS011;2619;47.868;11.892;2023-02-22T13:02:34;3.83;;;2.20;;
5199;SDS011;2619;47.868;11.892;2023-02-22T13:05:04;3.63;;;2.20;;
5199;SDS011;2619;47.868;11.892;2023-02-22T13:07:42;3.67;;;1.90;;
5199;SDS011;2619;47.868;11.892;2023-02-22T13:26:13;3.17;;;2.20;;
5199;SDS011;2619;47.868;11.892;2023-02-22T13:31:15;3.77;;;2.50;;
5199;SDS011;2619;47.868;11.892;2023-02-22T13:34:12;3.37;;;2.00;;
5199;SDS011;2619;47.868;11.892;2023-02-22T13:43:21;3.87;;;2.13;;
5199;SDS011;2619;47.868;11.892;2023-02-22T13:45:39;3.43;;;2.20;;
5199;SDS011;2619;47.868;11.892;2023-02-22T13:54:00;7.90;;;2.47;;
5199;SDS011;2619;47.868;11.892;2023-02-22T13:56:31;3.00;;;1.93;;
5199;SDS011;2619;47.868;11.892;2023-02-22T13:58:58;4.30;;;2.97;;
5199;SDS011;2619;47.868;11.892;2023-02-22T14:07:02;3.70;;;1.83;;
5199;SDS011;2619;47.868;11.892;2023-02-22T14:17:42;3.10;;;1.87;;
5199;SDS011;2619;47.868;11.892;2023-02-22T14:22:39;3.07;;;1.90;;
5199;SDS011;2619;47.868;11.892;2023-02-22T14:27:52;5.00;;;1.70;;
5199;SDS011;2619;47.868;11.892;2023-02-22T14:30:25;7.43;;;1.90;;
5199;SDS011;2619;47.868;11.892;2023-02-22T14:32:52;4.67;;;1.93;;
5199;SDS011;2619;47.868;11.892;2023-02-22T14:35:18;3.20;;;1.60;;
5199;SDS011;2619;47.868;11.892;2023-02-22T14:37:47;3.13;;;2.30;;
5199;SDS011;2619;47.868;11.892;2023-02-22T14:40:26;3.93;;;2.00;;
5199;SDS011;2619;47.868;11.892;2023-02-22T14:45:51;5.23;;;1.90;;
5199;SDS011;2619;47.868;11.892;2023-02-22T14:58:28;5.40;;;2.20;;
5199;SDS011;2619;47.868;11.892;2023-02-22T15:01:27;12.07;;;2.50;;
5199;SDS011;2619;47.868;11.892;2023-02-22T15:04:20;6.20;;;2.20;;
5199;SDS011;2619;47.868;11.892;2023-02-22T15:06:51;4.27;;;1.90;;
5199;SDS011;2619;47.868;11.892;2023-02-22T15:09:20;3.77;;;2.10;;
5199;SDS011;2619;47.868;11.892;2023-02-22T15:11:52;3.90;;;2.03;;
5199;SDS011;2619;47.868;11.892;2023-02-22T15:14:34;3.87;;;2.33;;
5199;SDS011;2619;47.868;11.892;2023-02-22T15:17:20;3.60;;;1.90;;
5199;SDS011;2619;47.868;11.892;2023-02-22T15:19:49;3.00;;;2.03;;
5199;SDS011;2619;47.868;11.892;2023-02-22T15:22:20;4.63;;;2.10;;
5199;SDS011;2619;47.868;11.892;2023-02-22T15:24:56;4.03;;;2.20;;
5199;SDS011;2619;47.868;11.892;2023-02-22T15:27:23;7.97;;;2.60;;
5199;SDS011;2619;47.868;11.892;2023-02-22T15:29:49;4.77;;;1.80;;
5199;SDS011;2619;47.868;11.892;2023-02-22T15:37:44;4.90;;;2.00;;
5199;SDS011;2619;47.868;11.892;2023-02-22T15:40:15;3.33;;;2.00;;
5199;SDS011;2619;47.868;11.892;2023-02-22T15:45:13;5.53;;;2.70;;
5199;SDS011;2619;47.868;11.892;2023-02-22T15:47:44;3.90;;;2.17;;
5199;SDS011;2619;47.868;11.892;2023-02-22T15:55:56;8.87;;;4.73;;
5199;SDS011;2619;47.868;11.892;2023-02-22T15:58:24;10.30;;;6.10;;
5199;SDS011;2619;47.868;11.892;2023-02-22T16:03:26;7.13;;;3.17;;
5199;SDS011;2619;47.868;11.892;2023-02-22T16:06:30;9.70;;;4.97;;
5199;SDS011;2619;47.868;11.892;2023-02-22T16:11:36;6.00;;;2.63;;
5199;SDS011;2619;47.868;11.892;2023-02-22T16:14:24;6.10;;;2.30;;
5199;SDS011;2619;47.868;11.892;2023-02-22T16:19:39;3.70;;;2.07;;
5199;SDS011;2619;47.868;11.892;2023-02-22T16:22:06;4.50;;;2.60;;
5199;SDS011;2619;47.868;11.892;2023-02-22T16:24:46;4.30;;;2.10;;
5199;SDS011;2619;47.868;11.892;2023-02-22T16:27:16;3.00;;;2.20;;
5199;SDS011;2619;47.868;11.892;2023-02-22T16:29:59;3.73;;;2.17;;
5199;SDS011;2619;47.868;11.892;2023-02-22T16:32:45;4.47;;;2.03;;
5199;SDS011;2619;47.868;11.892;2023-02-22T16:35:11;6.20;;;2.33;;
5199;SDS011;2619;47.868;11.892;2023-02-22T16:37:42;3.40;;;1.97;;
5199;SDS011;2619;47.868;11.892;2023-02-22T16:40:46;3.93;;;2.43;;
5199;SDS011;2619;47.868;11.892;2023-02-22T16:43:12;6.20;;;3.87;;
5199;SDS011;2619;47.868;11.892;2023-02-22T16:45:40;5.40;;;2.70;;
5199;SDS011;2619;47.868;11.892;2023-02-22T16:50:45;5.57;;;2.33;;
5199;SDS011;2619;47.868;11.892;2023-02-22T16:53:11;4.10;;;2.70;;
5199;SDS011;2619;47.868;11.892;2023-02-22T16:55:40;4.13;;;2.47;;
5199;SDS011;2619;47.868;11.892;2023-02-22T16:58:08;7.60;;;4.27;;
5199;SDS011;2619;47.868;11.892;2023-02-22T17:00:36;5.10;;;2.53;;
5199;SDS011;2619;47.868;11.892;2023-02-22T17:03:02;7.27;;;2.83;;
5199;SDS011;2619;47.868;11.892;2023-02-22T17:05:29;4.17;;;1.83;;
5199;SDS011;2619;47.868;11.892;2023-02-22T17:07:59;3.33;;;1.93;;
5199;SDS011;2619;47.868;11.892;2023-02-22T17:10:25;4.90;;;1.50;;
5199;SDS011;2619;47.868;11.892;2023-02-22T17:12:52;2.37;;;1.40;;
5199;SDS011;2619;47.868;11.892;2023-02-22T17:15:23;6.30;;;2.43;;
5199;SDS011;2619;47.868;11.892;2023-02-22T17:17:52;4.17;;;1.73;;
5199;SDS011;2619;47.868;11.892;2023-02-22T17:20:19;2.73;;;1.73;;
5199;SDS011;2619;47.868;11.892;2023-02-22T17:22:54;8.33;;;4.80;;
5199;SDS011;2619;47.868;11.892;2023-02-22T17:25:25;5.47;;;3.00;;
5199;SDS011;2619;47.868;11.892;2023-02-22T17:27:54;4.77;;;3.23;;
5199;SDS011;2619;47.868;11.892;2023-02-22T17:30:19;3.97;;;2.03;;
5199;SDS011;2619;47.868;11.892;2023-02-22T17:32:48;4.60;;;1.87;;
5199;SDS011;2619;47.868;11.892;2023-02-22T17:35:18;5.10;;;2.60;;
5199;SDS011;2619;47.868;11.892;2023-02-22T17:37:47;3.90;;;2.30;;
5199;SDS011;2619;47.868;11.892;2023-02-22T17:40:16;4.27;;;2.60;;
5199;SDS011;2619;47.868;11.892;2023-02-22T17:42:42;4.63;;;2.40;;
5199;SDS011;2619;47.868;11.892;2023-02-22T17:45:09;8.37;;;2.60;;
5199;SDS011;2619;47.868;11.892;2023-02-22T17:47:37;3.87;;;2.03;;
5199;SDS011;2619;47.868;11.892;2023-02-22T17:50:08;6.87;;;2.33;;
5199;SDS011;2619;47.868;11.892;2023-02-22T17:52:35;3.77;;;2.23;;
5199;SDS011;2619;47.868;11.892;2023-02-22T17:55:01;9.73;;;3.10;;
5199;SDS011;2619;47.868;11.892;2023-02-22T17:57:27;5.07;;;3.17;;
5199;SDS011;2619;47.868;11.892;2023-02-22T17:59:54;7.00;;;3.20;;
5199;SDS011;2619;47.868;11.892;2023-02-22T18:02:19;3.90;;;2.00;;
5199;SDS011;2619;47.868;11.892;2023-02-22T18:04:45;6.00;;;2.90;;
5199;SDS011;2619;47.868;11.892;2023-02-22T18:07:10;3.30;;;1.80;;
5199;SDS011;2619;47.868;11.892;2023-02-22T18:09:38;4.10;;;2.50;;
5199;SDS011;2619;47.868;11.892;2023-02-22T18:12:05;3.77;;;1.80;;
5199;SDS011;2619;47.868;11.892;2023-02-22T18:14:31;4.93;;;2.37;;